BIEG

Egilsstaðir Airport

Egilsstaðir, Iceland

BIEG 112200Z 00000KT CAVOK M12/M13 Q1000 R04/410295

Observed Flight Rules
Dec-11 @ 22:00 UTC (43 minutes ago) Visual Flight Rules
Wind Visibility Clouds
Calm 10,000+ meters
  • Clear skies
Temperatures Readings
Current -12°C / 10°F
Dewpoint -13°C / 9°F
Humidity 92%
Altimeter 29.53" Hg
Pressure 1000 hPa
Elevation 38
Observed Flight Rules
Dec-11 @ 22:00 UTC
(43 minutes ago)
VFR
Wind Visibility
Calm 10,000+ meters
Clouds
  • Clear skies
Temperature Dewpoint
-12°C / 10°F -13°C / 9°F
Humidity Altimeter Pressure
92% 29.53" Hg 1000 hPa